Time;durP1;ratioP1;P1;durP2;ratioP2;P2;SDS_P1;SDS_P2;PMS_P1;PMS_P2;Temp;Humidity;BMP_temperature;BMP_pressure;BME280_temperature;BME280_humidity;BME280_pressure;Samples;Min_cycle;Max_cycle;Signal;HPM_P1;HPM_P2
2022/09/02 00:00:13;;;;;;;2.67;2.47;;;16.00;99.90;;;;;;5011838;28;20304;-76
2022/09/02 00:02:39;;;;;;;4.40;2.00;;;16.00;99.90;;;;;;5029209;28;20188;-77
2022/09/02 00:05:05;;;;;;;2.20;1.90;;;16.00;99.90;;;;;;5028800;28;20447;-76
2022/09/02 00:07:31;;;;;;;3.80;1.90;;;16.10;99.90;;;;;;5028962;28;20626;-77
2022/09/02 00:09:58;;;;;;;2.90;2.20;;;16.10;99.90;;;;;;5028968;28;20429;-76
2022/09/02 00:12:24;;;;;;;3.70;2.13;;;16.10;99.90;;;;;;5028751;28;20438;-76
2022/09/02 00:14:50;;;;;;;3.10;2.10;;;16.10;99.90;;;;;;5027221;28;20813;-76
2022/09/02 00:17:15;;;;;;;3.00;2.00;;;16.10;99.90;;;;;;5026994;28;20199;-76
2022/09/02 00:19:41;;;;;;;2.60;2.40;;;16.10;99.90;;;;;;5032377;28;20197;-76
2022/09/02 00:22:06;;;;;;;3.90;2.13;;;16.10;99.90;;;;;;5031192;28;20596;-76
2022/09/02 00:24:32;;;;;;;2.77;2.03;;;16.00;99.90;;;;;;5031177;28;20276;-76
2022/09/02 00:26:58;;;;;;;3.77;2.70;;;15.90;99.90;;;;;;5032418;28;20297;-76
2022/09/02 00:29:26;;;;;;;2.40;2.20;;;15.80;99.90;;;;;;5032479;28;20189;-76
2022/09/02 00:31:51;;;;;;;4.37;2.10;;;15.60;99.90;;;;;;5032301;28;20229;-76
2022/09/02 00:34:17;;;;;;;4.10;2.07;;;15.50;99.90;;;;;;5032152;28;20469;-75
2022/09/02 00:36:43;;;;;;;6.63;2.70;;;15.40;99.90;;;;;;5032253;28;20182;-75
2022/09/02 00:39:09;;;;;;;6.07;2.67;;;15.30;99.90;;;;;;5032282;28;20448;-76
2022/09/02 00:41:38;;;;;;;4.30;2.33;;;15.20;99.90;;;;;;5032124;28;20198;-75
2022/09/02 00:44:08;;;;;;;4.17;2.77;;;15.10;99.90;;;;;;5031924;28;20425;-75
2022/09/02 00:46:34;;;;;;;8.53;3.30;;;15.00;99.90;;;;;;5031869;28;20423;-75
2022/09/02 00:49:07;;;;;;;3.37;2.73;;;14.90;99.90;;;;;;5032104;28;20913;-75
2022/09/02 00:51:41;;;;;;;3.43;2.20;;;14.80;99.90;;;;;;5031947;28;20448;-75
2022/09/02 00:54:08;;;;;;;5.97;3.03;;;14.80;99.90;;;;;;5031863;28;20526;-75
2022/09/02 00:56:36;;;;;;;2.60;2.40;;;14.60;99.90;;;;;;5031894;28;21134;-76
2022/09/02 00:59:01;;;;;;;5.73;2.30;;;14.50;99.90;;;;;;5031830;28;20782;-76
2022/09/02 01:01:27;;;;;;;2.27;2.07;;;14.50;99.90;;;;;;5030362;28;20496;-76
2022/09/02 01:03:53;;;;;;;4.00;2.30;;;14.40;99.90;;;;;;5031840;28;20181;-76
2022/09/02 01:06:23;;;;;;;2.33;2.13;;;14.50;99.90;;;;;;5030506;28;20501;-76
2022/09/02 01:08:56;;;;;;;10.10;1.80;;;14.60;99.90;;;;;;5030333;28;20447;-75
2022/09/02 01:11:25;;;;;;;2.60;2.33;;;14.60;99.90;;;;;;5031852;28;20859;-75
2022/09/02 01:13:51;;;;;;;3.70;2.60;;;14.50;99.90;;;;;;5032136;28;20938;-75
2022/09/02 01:16:24;;;;;;;3.47;2.40;;;14.40;99.90;;;;;;5030789;28;20435;-76
2022/09/02 01:18:53;;;;;;;2.30;2.10;;;14.30;99.90;;;;;;5032360;28;20411;-75
2022/09/02 01:21:20;;;;;;;3.50;2.53;;;14.10;99.90;;;;;;5032193;28;20531;-76
2022/09/02 01:23:47;;;;;;;2.53;2.30;;;14.10;99.90;;;;;;5032229;28;20429;-75
2022/09/02 01:26:12;;;;;;;6.50;2.50;;;14.10;99.90;;;;;;5032094;28;20517;-75
2022/09/02 01:28:38;;;;;;;2.70;2.50;;;14.10;99.90;;;;;;5031480;28;20516;-76
2022/09/02 01:31:05;;;;;;;2.70;2.50;;;14.00;99.90;;;;;;5030118;28;20319;-76
2022/09/02 01:33:31;;;;;;;2.67;2.47;;;14.00;99.90;;;;;;5031347;28;20442;-75
2022/09/02 01:35:56;;;;;;;5.30;3.20;;;13.90;99.90;;;;;;5030049;28;21105;-76
2022/09/02 01:38:23;;;;;;;3.33;2.37;;;13.80;99.90;;;;;;5030987;28;20914;-76
2022/09/02 01:40:49;;;;;;;2.73;2.20;;;13.80;99.90;;;;;;5030782;28;20200;-75
2022/09/02 01:43:18;;;;;;;3.50;2.27;;;13.80;99.90;;;;;;5031311;28;20455;-76
2022/09/02 01:45:46;;;;;;;2.67;2.37;;;13.80;99.90;;;;;;5029659;28;20423;-76
2022/09/02 01:48:13;;;;;;;3.17;2.90;;;13.80;99.90;;;;;;5030854;28;20420;-76
2022/09/02 01:50:42;;;;;;;3.67;2.40;;;13.90;99.90;;;;;;5030571;28;20450;-76
2022/09/02 01:53:07;;;;;;;2.40;2.20;;;14.00;99.90;;;;;;5029227;28;21001;-76
2022/09/02 01:55:33;;;;;;;2.63;2.27;;;14.00;99.90;;;;;;5030618;28;20467;-76
2022/09/02 01:57:59;;;;;;;4.37;2.43;;;14.00;99.90;;;;;;5030879;28;20192;-76
2022/09/02 02:00:26;;;;;;;6.27;2.60;;;13.90;99.90;;;;;;5030666;28;20439;-76
2022/09/02 02:02:52;;;;;;;4.07;2.40;;;14.00;99.90;;;;;;5030541;28;20911;-76
2022/09/02 02:05:18;;;;;;;3.20;2.67;;;13.90;99.90;;;;;;5030553;28;20419;-76
2022/09/02 02:07:44;;;;;;;4.70;3.17;;;13.90;99.90;;;;;;5030704;28;20267;-76
2022/09/02 02:10:12;;;;;;;4.53;2.97;;;13.90;99.90;;;;;;5028818;28;20439;-76
2022/09/02 02:12:39;;;;;;;4.17;2.60;;;13.80;99.90;;;;;;5030360;28;20470;-76
2022/09/02 02:15:09;;;;;;;4.83;2.90;;;13.90;99.90;;;;;;5030672;28;20821;-76
2022/09/02 02:17:35;;;;;;;5.07;2.67;;;13.90;99.90;;;;;;5030872;28;20920;-76
2022/09/02 02:20:03;;;;;;;4.80;2.40;;;13.80;99.90;;;;;;5030196;28;20450;-77
2022/09/02 02:22:30;;;;;;;3.07;2.30;;;13.80;99.90;;;;;;5030482;28;20649;-76
2022/09/02 02:24:56;;;;;;;6.33;3.00;;;13.90;99.90;;;;;;5028867;28;20431;-76
2022/09/02 02:27:22;;;;;;;2.30;2.10;;;14.00;99.90;;;;;;5012070;28;20439;-76
2022/09/02 02:29:47;;;;;;;4.40;2.23;;;14.00;99.90;;;;;;5029858;28;21088;-76
2022/09/02 02:32:14;;;;;;;3.70;2.17;;;14.00;99.90;;;;;;5028299;28;20693;-76
2022/09/02 02:34:39;;;;;;;2.80;1.70;;;14.00;99.90;;;;;;5028087;28;20755;-76
2022/09/02 02:37:05;;;;;;;2.40;2.17;;;14.10;99.90;;;;;;5028267;28;20427;-75
2022/09/02 02:39:31;;;;;;;1.97;1.77;;;14.30;99.90;;;;;;5011714;28;20180;-76
2022/09/02 02:41:57;;;;;;;2.47;2.27;;;14.30;99.90;;;;;;5028748;28;20204;-75
2022/09/02 02:44:23;;;;;;;2.20;2.00;;;14.20;99.90;;;;;;5029520;28;20438;-76
2022/09/02 02:46:49;;;;;;;2.20;2.00;;;14.10;99.90;;;;;;5029673;28;20190;-76
2022/09/02 02:49:14;;;;;;;5.90;2.00;;;14.00;99.90;;;;;;5029521;28;20552;-75
2022/09/02 02:51:40;;;;;;;1.93;1.73;;;14.00;99.90;;;;;;5029528;28;20438;-76
2022/09/02 02:54:06;;;;;;;2.30;2.10;;;14.00;99.90;;;;;;5029466;28;20372;-76
2022/09/02 02:56:33;;;;;;;4.03;2.30;;;14.10;99.90;;;;;;5029415;28;20234;-76
2022/09/02 02:59:02;;;;;;;5.30;1.53;;;14.00;99.90;;;;;;5028066;28;20427;-76
2022/09/02 03:01:29;;;;;;;1.77;1.40;;;14.10;99.90;;;;;;5029667;28;20439;-76
2022/09/02 03:03:56;;;;;;;1.90;1.63;;;14.30;99.90;;;;;;5029610;28;20423;-76
2022/09/02 03:06:22;;;;;;;2.50;1.73;;;14.30;99.90;;;;;;5029764;28;20426;-76
2022/09/02 03:08:47;;;;;;;1.63;1.53;;;14.30;99.90;;;;;;5029586;28;20429;-75
2022/09/02 03:11:15;;;;;;;2.90;1.40;;;14.40;99.90;;;;;;5011163;28;20812;-75
2022/09/02 03:13:41;;;;;;;6.07;1.60;;;14.40;99.90;;;;;;5029155;28;20198;-75
2022/09/02 03:16:08;;;;;;;2.07;1.73;;;14.50;99.90;;;;;;5028871;28;21025;-75
2022/09/02 03:18:34;;;;;;;1.53;1.43;;;14.60;99.90;;;;;;5029181;28;20419;-75
2022/09/02 03:21:00;;;;;;;7.27;2.00;;;14.60;99.90;;;;;;5027728;28;20208;-75
2022/09/02 03:23:26;;;;;;;2.03;1.80;;;14.60;99.90;;;;;;5029218;28;20426;-75
2022/09/02 03:25:52;;;;;;;2.17;1.80;;;14.70;99.90;;;;;;5028806;28;20582;-75
2022/09/02 03:28:18;;;;;;;3.90;2.00;;;14.70;99.90;;;;;;5029034;28;20535;-75
2022/09/02 03:30:45;;;;;;;2.53;2.00;;;14.80;99.90;;;;;;5028957;28;20447;-75
2022/09/02 03:33:11;;;;;;;2.03;1.60;;;14.80;99.90;;;;;;5028833;28;20188;-75
2022/09/02 03:35:43;;;;;;;2.30;2.00;;;14.80;99.90;;;;;;5027738;28;20478;-75
2022/09/02 03:38:11;;;;;;;2.83;1.90;;;14.90;99.90;;;;;;5029069;28;20180;-74
2022/09/02 03:40:37;;;;;;;2.00;1.80;;;14.90;99.90;;;;;;5028677;28;20525;-74
2022/09/02 03:43:03;;;;;;;2.50;1.83;;;14.80;99.90;;;;;;5027383;28;20423;-74
2022/09/02 03:45:29;;;;;;;3.43;2.33;;;14.90;99.90;;;;;;5027209;28;20447;-74
2022/09/02 03:47:55;;;;;;;2.83;2.63;;;14.90;99.90;;;;;;5028772;28;20780;-74
2022/09/02 03:50:25;;;;;;;5.00;1.90;;;14.90;99.90;;;;;;5029012;28;20446;-74
2022/09/02 03:52:50;;;;;;;2.43;1.90;;;14.90;99.90;;;;;;5028448;28;20435;-74
2022/09/02 03:55:17;;;;;;;5.93;2.30;;;14.90;99.90;;;;;;5027102;28;21143;-74
2022/09/02 03:57:44;;;;;;;3.30;2.70;;;14.80;99.90;;;;;;5028665;28;20187;-74
2022/09/02 04:00:12;;;;;;;2.63;2.17;;;14.80;99.90;;;;;;5028604;28;20443;-74
2022/09/02 04:02:38;;;;;;;2.70;2.50;;;14.70;99.90;;;;;;5028700;28;20912;-74
2022/09/02 04:05:04;;;;;;;7.30;2.63;;;14.80;99.90;;;;;;5028588;28;20500;-74
2022/09/02 04:07:30;;;;;;;2.50;2.03;;;14.70;99.90;;;;;;5028413;28;20426;-75
2022/09/02 04:09:56;;;;;;;6.50;2.70;;;14.70;99.90;;;;;;5028417;28;20446;-75
2022/09/02 04:12:22;;;;;;;4.50;2.93;;;14.70;99.90;;;;;;5028310;28;20450;-74
2022/09/02 04:14:48;;;;;;;5.60;2.50;;;14.70;99.90;;;;;;5028597;28;20685;-74
2022/09/02 04:20:48;;;;;;;4.17;2.30;;;14.70;99.90;;;;;;5028334;28;20853;-74
2022/09/02 04:23:14;;;;;;;2.17;2.07;;;14.70;99.90;;;;;;5027015;28;20534;-74
2022/09/02 04:25:43;;;;;;;2.60;2.07;;;14.70;99.90;;;;;;5028473;28;20578;-76
2022/09/02 04:28:09;;;;;;;2.83;2.37;;;14.70;99.90;;;;;;5026906;28;20199;-77
2022/09/02 04:30:38;;;;;;;3.83;2.27;;;14.60;99.90;;;;;;5028340;28;20458;-76
2022/09/02 04:33:03;;;;;;;5.23;2.20;;;14.50;99.90;;;;;;5028586;28;20432;-77
2022/09/02 04:35:29;;;;;;;3.93;2.43;;;14.50;99.90;;;;;;5028559;28;20474;-76
2022/09/02 04:37:55;;;;;;;6.63;2.57;;;14.40;99.90;;;;;;5028372;28;20692;-76
2022/09/02 04:40:22;;;;;;;6.60;2.23;;;14.40;99.90;;;;;;5028453;28;20326;-76
2022/09/02 04:42:48;;;;;;;3.13;2.10;;;14.40;99.90;;;;;;5027173;28;20616;-76
2022/09/02 04:45:14;;;;;;;4.43;2.20;;;14.40;99.90;;;;;;5028840;28;20940;-76
2022/09/02 04:47:39;;;;;;;2.77;2.57;;;14.30;99.90;;;;;;5028268;28;20466;-77
2022/09/02 04:50:06;;;;;;;4.27;2.80;;;14.30;99.90;;;;;;5027709;28;20201;-76
2022/09/02 04:52:32;;;;;;;4.20;2.13;;;14.40;99.90;;;;;;5028048;28;20602;-76
2022/09/02 04:54:57;;;;;;;4.53;2.27;;;14.40;99.90;;;;;;5027537;28;20463;-77
2022/09/02 04:57:23;;;;;;;3.20;2.90;;;14.40;99.90;;;;;;5009785;28;20276;-77
2022/09/02 04:59:48;;;;;;;2.60;2.20;;;14.40;99.90;;;;;;5026043;28;20239;-76
2022/09/02 05:02:14;;;;;;;3.50;2.40;;;14.40;99.90;;;;;;5027538;28;20185;-76
2022/09/02 05:04:40;;;;;;;2.60;2.40;;;14.30;99.90;;;;;;5029132;28;20314;-76
2022/09/02 05:07:06;;;;;;;5.80;2.47;;;14.30;99.90;;;;;;5030058;28;20177;-76
2022/09/02 05:09:32;;;;;;;3.43;2.23;;;14.30;99.90;;;;;;5028636;28;20185;-76
2022/09/02 05:12:03;;;;;;;2.33;2.13;;;14.30;99.90;;;;;;5030060;28;20593;-76
2022/09/02 05:14:29;;;;;;;4.97;3.00;;;14.20;99.90;;;;;;5029914;28;20463;-77
2022/09/02 05:16:54;;;;;;;2.77;2.57;;;14.10;99.90;;;;;;5030051;28;20809;-76
2022/09/02 05:19:22;;;;;;;4.17;2.67;;;14.20;99.90;;;;;;5012375;28;20993;-76
2022/09/02 05:21:49;;;;;;;2.70;2.50;;;14.20;99.90;;;;;;5029832;28;20681;-76
2022/09/02 05:24:16;;;;;;;3.80;2.90;;;14.20;99.90;;;;;;5030557;28;20422;-77
2022/09/02 05:26:43;;;;;;;5.27;2.93;;;14.20;99.90;;;;;;5029973;28;20522;-77
2022/09/02 05:29:10;;;;;;;2.67;2.47;;;14.20;99.90;;;;;;5029736;28;20843;-76
2022/09/02 05:31:37;;;;;;;5.50;3.20;;;14.30;99.90;;;;;;5029567;28;20436;-76
2022/09/02 05:34:03;;;;;;;2.67;2.47;;;14.30;99.90;;;;;;5027984;28;20431;-77
2022/09/02 05:36:31;;;;;;;4.30;1.97;;;14.40;99.90;;;;;;5030045;28;20422;-77
2022/09/02 05:38:57;;;;;;;2.53;2.03;;;14.50;99.90;;;;;;5029585;28;20442;-76
2022/09/02 05:41:24;;;;;;;2.50;2.30;;;14.60;99.90;;;;;;5027842;28;21081;-75
2022/09/02 05:43:56;;;;;;;3.67;2.47;;;14.60;99.90;;;;;;5029314;28;20459;-76
2022/09/02 05:46:24;;;;;;;5.43;2.20;;;14.70;99.90;;;;;;5029253;28;20429;-76
2022/09/02 05:49:06;;;;;;;4.53;2.47;;;14.80;99.90;;;;;;5029391;28;20451;-76
2022/09/02 05:51:53;;;;;;;4.17;2.50;;;14.90;99.90;;;;;;5027939;28;20442;-76
2022/09/02 05:54:28;;;;;;;3.30;2.57;;;15.00;99.90;;;;;;5029247;28;20473;-76
2022/09/02 05:56:57;;;;;;;2.50;2.30;;;15.10;99.90;;;;;;5027720;28;20939;-77
2022/09/02 05:59:24;;;;;;;2.70;2.00;;;15.20;99.90;;;;;;5029110;28;20431;-77
2022/09/02 06:01:50;;;;;;;2.97;2.20;;;15.30;99.90;;;;;;5027779;28;20448;-76
2022/09/02 06:04:16;;;;;;;2.60;2.20;;;15.30;99.90;;;;;;5029266;28;20424;-78
2022/09/02 06:06:42;;;;;;;4.20;2.07;;;15.50;99.90;;;;;;5029625;28;20994;-77
2022/09/02 06:09:13;;;;;;;4.00;2.07;;;15.50;99.90;;;;;;5029336;28;20433;-76
2022/09/02 06:11:44;;;;;;;3.20;2.37;;;15.60;99.90;;;;;;5029324;28;20230;-77
2022/09/02 06:14:12;;;;;;;3.30;2.23;;;15.70;99.90;;;;;;5028894;28;20454;-76
2022/09/02 06:16:39;;;;;;;6.97;2.23;;;15.80;99.90;;;;;;5029241;28;20424;-76
2022/09/02 06:19:05;;;;;;;9.33;2.17;;;16.00;99.90;;;;;;5029245;28;20435;-76
2022/09/02 06:21:32;;;;;;;2.40;2.20;;;16.10;99.90;;;;;;5029188;28;20443;-76
2022/09/02 06:23:58;;;;;;;4.47;2.00;;;16.50;99.90;;;;;;5029430;28;20482;-76
2022/09/02 06:26:24;;;;;;;3.93;2.00;;;16.50;99.90;;;;;;5029237;28;20417;-76
2022/09/02 06:28:50;;;;;;;5.20;2.33;;;16.80;99.90;;;;;;5031831;28;20972;-76
2022/09/02 06:31:19;;;;;;;6.60;2.27;;;16.90;99.90;;;;;;5032597;28;20201;-76
2022/09/02 06:33:46;;;;;;;2.20;2.00;;;17.30;99.90;;;;;;5033533;28;20433;-76
2022/09/02 06:36:15;;;;;;;2.37;2.17;;;17.50;99.90;;;;;;5032591;28;21267;-75
2022/09/02 06:38:44;;;;;;;2.30;1.73;;;17.80;99.90;;;;;;5033454;28;20492;-75
2022/09/02 06:41:11;;;;;;;3.40;2.30;;;18.10;99.90;;;;;;5029263;28;20442;-76
2022/09/02 06:43:37;;;;;;;4.00;2.10;;;17.90;99.90;;;;;;5031947;28;20411;-76
2022/09/02 06:46:04;;;;;;;2.40;2.20;;;18.10;99.90;;;;;;5013607;28;20441;-76
2022/09/02 06:48:29;;;;;;;3.20;2.10;;;18.00;99.90;;;;;;5031277;28;20183;-76
2022/09/02 06:50:55;;;;;;;2.33;1.50;;;17.80;99.90;;;;;;5029883;28;20518;-75
2022/09/02 06:53:22;;;;;;;4.67;2.07;;;17.70;99.90;;;;;;5029186;28;20819;-76
2022/09/02 06:55:47;;;;;;;3.20;2.10;;;17.60;99.90;;;;;;5026638;28;20257;-75
2022/09/02 06:58:14;;;;;;;11.37;1.97;;;17.50;99.90;;;;;;5028149;28;20419;-76
2022/09/02 07:00:40;;;;;;;3.90;1.83;;;17.40;99.90;;;;;;5028127;28;20235;-76
2022/09/02 07:06:08;;;;;;;3.57;1.80;;;17.30;99.90;;;;;;5026824;28;20438;-75
2022/09/02 07:08:37;;;;;;;2.37;1.97;;;17.20;99.90;;;;;;5027790;28;20487;-75
2022/09/02 07:11:04;;;;;;;3.73;1.90;;;17.20;99.90;;;;;;5010029;28;20436;-75
2022/09/02 07:13:30;;;;;;;3.50;2.57;;;17.20;99.90;;;;;;5026065;28;20443;-76
2022/09/02 07:15:56;;;;;;;3.37;1.70;;;17.10;99.90;;;;;;5027890;28;20474;-75
2022/09/02 07:18:22;;;;;;;5.13;2.10;;;17.10;99.90;;;;;;5028880;28;20422;-76
2022/09/02 07:20:48;;;;;;;4.20;2.03;;;17.10;99.90;;;;;;5027497;28;20286;-75
2022/09/02 07:23:15;;;;;;;3.40;1.90;;;17.10;99.90;;;;;;5027867;28;20420;-75
2022/09/02 07:25:41;;;;;;;3.10;1.70;;;17.10;99.90;;;;;;5027708;28;20421;-76
2022/09/02 07:28:09;;;;;;;7.97;1.90;;;17.20;99.90;;;;;;5026676;28;20425;-76
2022/09/02 07:30:35;;;;;;;3.80;2.20;;;17.30;99.90;;;;;;5027170;28;20503;-76
2022/09/02 07:33:01;;;;;;;4.37;2.10;;;17.30;99.90;;;;;;5027168;28;20429;-77
2022/09/02 07:35:28;;;;;;;10.83;2.00;;;17.30;99.90;;;;;;5027231;28;20457;-76
2022/09/02 07:37:54;;;;;;;3.63;1.50;;;17.40;99.90;;;;;;5027029;28;20415;-76
2022/09/02 07:40:20;;;;;;;4.20;1.90;;;17.40;99.90;;;;;;5025586;28;20449;-75
2022/09/02 07:42:45;;;;;;;2.03;1.63;;;17.60;99.90;;;;;;5025648;28;20187;-76
2022/09/02 07:45:12;;;;;;;4.37;1.80;;;17.60;99.90;;;;;;5009096;28;20228;-76
2022/09/02 07:47:38;;;;;;;2.50;1.50;;;17.60;99.90;;;;;;5027184;28;20195;-75
2022/09/02 07:50:05;;;;;;;3.83;1.50;;;17.60;99.90;;;;;;5026992;28;20551;-76
2022/09/02 07:52:30;;;;;;;6.10;2.53;;;17.70;99.90;;;;;;5027160;28;20233;-76
2022/09/02 07:54:56;;;;;;;2.30;1.37;;;17.70;99.90;;;;;;5025494;28;20482;-76
2022/09/02 07:57:22;;;;;;;1.60;1.40;;;17.90;99.90;;;;;;5026967;28;20187;-76
2022/09/02 07:59:48;;;;;;;2.27;1.67;;;18.00;99.90;;;;;;5026803;28;20175;-75
2022/09/02 08:02:15;;;;;;;2.20;1.50;;;18.10;99.90;;;;;;5008948;28;20827;-75
2022/09/02 08:04:42;;;;;;;1.63;1.20;;;18.30;99.90;;;;;;5026935;28;20191;-76
2022/09/02 08:07:08;;;;;;;1.50;1.30;;;18.50;99.90;;;;;;5026809;28;20434;-75
2022/09/02 08:09:34;;;;;;;2.10;1.63;;;18.60;99.90;;;;;;5025506;28;20550;-75
2022/09/02 08:12:00;;;;;;;2.80;1.30;;;18.70;99.90;;;;;;5026870;28;20505;-76
2022/09/02 08:14:27;;;;;;;2.70;1.70;;;18.70;99.90;;;;;;5026740;28;20218;-75
2022/09/02 08:16:54;;;;;;;2.77;1.50;;;18.90;99.90;;;;;;5025426;28;20189;-76
2022/09/02 08:19:21;;;;;;;2.10;1.50;;;19.00;99.90;;;;;;5027176;28;20423;-76
2022/09/02 08:21:47;;;;;;;4.53;1.67;;;18.80;99.90;;;;;;5025285;28;20830;-77
2022/09/02 08:24:12;;;;;;;2.17;1.30;;;18.70;99.50;;;;;;5026844;28;20907;-76
2022/09/02 08:26:38;;;;;;;8.63;1.43;;;18.60;99.00;;;;;;5026858;28;20569;-76
2022/09/02 08:29:05;;;;;;;6.53;1.57;;;18.80;99.90;;;;;;5026749;28;20311;-76
2022/09/02 08:31:32;;;;;;;4.03;1.57;;;18.90;99.90;;;;;;5026650;28;20627;-77
2022/09/02 08:33:58;;;;;;;3.87;1.23;;;18.90;99.10;;;;;;5025149;28;20426;-75
2022/09/02 08:36:25;;;;;;;2.90;1.77;;;18.90;98.10;;;;;;5026905;28;20541;-76
2022/09/02 08:38:51;;;;;;;4.13;1.30;;;19.20;98.60;;;;;;5009584;28;20438;-76
2022/09/02 08:41:40;;;;;;;1.27;1.10;;;19.20;98.30;;;;;;5030191;28;20457;-76
2022/09/02 08:44:09;;;;;;;2.33;1.50;;;19.30;98.30;;;;;;5030585;28;20240;-76
2022/09/02 08:46:35;;;;;;;3.00;1.60;;;19.30;96.60;;;;;;5030331;28;20615;-76
2022/09/02 08:49:07;;;;;;;2.87;1.20;;;19.30;96.80;;;;;;5030214;28;20433;-76
2022/09/02 08:51:50;;;;;;;3.23;1.50;;;19.40;97.40;;;;;;5028499;28;20593;-76
2022/09/02 08:54:31;;;;;;;1.10;1.00;;;19.60;97.80;;;;;;5030204;28;20762;-76
2022/09/02 08:56:57;;;;;;;1.80;1.23;;;20.00;97.60;;;;;;5028974;28;20433;-76
2022/09/02 08:59:26;;;;;;;2.33;1.20;;;20.20;96.30;;;;;;5030387;28;20500;-75
2022/09/02 09:02:00;;;;;;;2.03;1.10;;;20.30;95.40;;;;;;5030186;28;20788;-75
2022/09/02 09:04:35;;;;;;;2.43;1.20;;;20.50;94.40;;;;;;5030181;28;20535;-75
2022/09/02 09:07:16;;;;;;;4.90;1.77;;;20.90;95.90;;;;;;5030380;28;20422;-75
2022/09/02 09:09:48;;;;;;;11.13;1.60;;;21.10;92.00;;;;;;5030078;28;20415;-76
2022/09/02 09:12:38;;;;;;;3.40;1.33;;;21.30;92.90;;;;;;5030040;28;20446;-75
2022/09/02 09:15:34;;;;;;;2.17;1.30;;;21.40;92.00;;;;;;5030923;28;20459;-76
2022/09/02 09:18:03;;;;;;;3.83;1.40;;;20.90;90.40;;;;;;5029774;28;20419;-75
2022/09/02 09:20:36;;;;;;;2.83;1.57;;;21.00;91.40;;;;;;5030253;28;20916;-75
2022/09/02 09:23:11;;;;;;;1.83;1.43;;;21.30;91.90;;;;;;5029730;28;20422;-75
2022/09/02 09:25:37;;;;;;;1.47;1.37;;;21.70;91.90;;;;;;5030074;28;20481;-76
2022/09/02 09:28:03;;;;;;;1.43;1.30;;;22.50;91.30;;;;;;5029683;28;20928;-76
2022/09/02 09:30:28;;;;;;;4.03;1.40;;;22.90;89.00;;;;;;5027904;28;20217;-76
2022/09/02 09:33:04;;;;;;;2.93;1.50;;;23.40;87.40;;;;;;5029393;28;20188;-76
2022/09/02 09:36:02;;;;;;;1.67;1.30;;;23.60;81.30;;;;;;5029200;28;20223;-76
2022/09/02 09:38:33;;;;;;;3.10;1.73;;;23.60;83.00;;;;;;5021099;28;20480;-75
2022/09/02 09:41:16;;;;;;;4.90;1.63;;;23.10;82.40;;;;;;5029455;28;20444;-76
2022/09/02 09:43:42;;;;;;;3.27;1.30;;;23.10;82.40;;;;;;5029561;28;20430;-75
2022/09/02 09:46:27;;;;;;;3.23;1.50;;;23.40;85.40;;;;;;5028302;28;20420;-76
2022/09/02 09:48:53;;;;;;;1.10;1.00;;;23.40;81.50;;;;;;5029491;28;20429;-76
2022/09/02 09:51:19;;;;;;;2.90;1.40;;;24.30;80.70;;;;;;5029202;28;20448;-76
2022/09/02 09:53:45;;;;;;;2.20;1.53;;;23.80;81.00;;;;;;5027779;28;20466;-76
2022/09/02 09:56:14;;;;;;;3.20;1.60;;;24.30;80.70;;;;;;5029064;28;20477;-76
2022/09/02 09:58:40;;;;;;;2.03;1.23;;;24.70;80.10;;;;;;5029257;28;20426;-76
2022/09/02 10:01:13;;;;;;;2.20;1.30;;;24.60;81.00;;;;;;5029186;28;20450;-75
2022/09/02 10:03:59;;;;;;;1.67;1.20;;;24.90;76.30;;;;;;5027567;28;20186;-76
2022/09/02 10:06:31;;;;;;;2.10;1.53;;;25.40;76.80;;;;;;5029106;28;20453;-76
2022/09/02 10:09:00;;;;;;;4.27;1.30;;;25.70;73.90;;;;;;5028896;28;20938;-75
2022/09/02 10:11:28;;;;;;;1.50;1.40;;;26.10;72.90;;;;;;5028874;28;21007;-77
2022/09/02 10:14:08;;;;;;;1.47;1.30;;;26.30;75.10;;;;;;5027375;28;21271;-76
2022/09/02 10:16:41;;;;;;;4.67;1.40;;;26.40;75.10;;;;;;5028899;28;20441;-76
2022/09/02 10:19:28;;;;;;;3.20;1.50;;;26.00;71.50;;;;;;5028695;28;20474;-76
2022/09/02 10:22:22;;;;;;;1.37;1.27;;;25.60;73.50;;;;;;5028598;28;20432;-76
2022/09/02 10:24:54;;;;;;;2.20;1.07;;;25.70;75.10;;;;;;5028611;28;20407;-76
2022/09/02 10:27:36;;;;;;;2.30;1.70;;;25.70;71.80;;;;;;5028635;28;20403;-76
2022/09/02 10:30:12;;;;;;;1.77;1.63;;;26.30;72.90;;;;;;5028490;28;20445;-76
2022/09/02 10:32:47;;;;;;;3.00;1.30;;;25.30;69.30;;;;;;5027010;28;20419;-76
2022/09/02 10:35:34;;;;;;;4.37;1.73;;;25.80;74.20;;;;;;5028554;28;21261;-77
2022/09/02 10:38:09;;;;;;;1.80;1.70;;;26.20;72.70;;;;;;5028786;28;20416;-78
2022/09/02 10:40:45;;;;;;;2.83;1.50;;;26.70;72.40;;;;;;5029238;28;20971;-78
2022/09/02 10:43:29;;;;;;;2.20;2.00;;;27.10;72.70;;;;;;5029029;28;20401;-78
2022/09/02 10:46:00;;;;;;;2.10;1.30;;;27.30;70.30;;;;;;5029072;28;20414;-77
2022/09/02 10:48:44;;;;;;;5.50;1.80;;;27.50;70.90;;;;;;5029072;28;20959;-77
2022/09/02 10:51:32;;;;;;;1.30;1.20;;;27.40;70.40;;;;;;5029218;28;20454;-76
2022/09/02 10:54:22;;;;;;;2.60;1.60;;;27.50;68.40;;;;;;5029165;28;20399;-77
2022/09/02 10:57:10;;;;;;;2.40;1.60;;;27.50;71.00;;;;;;5029087;28;20510;-77
2022/09/02 11:00:09;;;;;;;3.30;1.70;;;27.50;68.40;;;;;;5029096;28;20396;-76
2022/09/02 11:02:53;;;;;;;5.03;1.50;;;27.60;67.20;;;;;;5026233;28;20506;-76
2022/09/02 11:05:33;;;;;;;3.37;1.73;;;27.60;64.80;;;;;;5027679;28;20412;-76
2022/09/02 11:08:05;;;;;;;2.57;1.13;;;27.50;65.40;;;;;;5029682;28;20479;-76
2022/09/02 11:10:37;;;;;;;1.93;1.70;;;27.50;67.30;;;;;;5029553;28;20523;-77
2022/09/02 11:13:05;;;;;;;2.40;1.73;;;27.00;64.60;;;;;;5027404;28;20449;-76
2022/09/02 11:15:51;;;;;;;1.93;1.80;;;27.10;68.50;;;;;;5027429;28;20454;-77
2022/09/02 11:18:43;;;;;;;1.93;1.50;;;26.70;68.80;;;;;;5028856;28;20407;-76
2022/09/02 11:21:46;;;;;;;2.10;1.57;;;27.00;66.90;;;;;;5028525;28;20434;-76
2022/09/02 11:24:14;;;;;;;3.30;1.60;;;27.00;65.80;;;;;;5025969;28;21152;-77
2022/09/02 11:26:52;;;;;;;1.60;1.50;;;27.10;66.20;;;;;;5027113;28;20423;-76
2022/09/02 11:29:40;;;;;;;3.80;1.60;;;27.50;65.00;;;;;;5028384;28;20399;-78
2022/09/02 11:32:21;;;;;;;1.50;1.40;;;27.50;64.50;;;;;;5028620;28;20439;-77
2022/09/02 11:34:49;;;;;;;1.80;1.70;;;27.70;64.10;;;;;;5028226;28;20453;-77
2022/09/02 11:37:36;;;;;;;1.70;1.53;;;27.70;64.10;;;;;;5027176;28;20430;-76
2022/09/02 11:40:05;;;;;;;3.00;1.33;;;27.00;61.80;;;;;;5027193;28;20411;-78
2022/09/02 11:43:01;;;;;;;4.13;1.50;;;27.30;65.50;;;;;;5011004;28;20568;-77
2022/09/02 11:45:55;;;;;;;3.60;1.37;;;27.30;63.90;;;;;;5027205;28;20431;-76
2022/09/02 11:48:57;;;;;;;1.43;1.33;;;27.30;65.10;;;;;;5029120;28;20415;-76
2022/09/02 11:51:40;;;;;;;6.73;1.60;;;27.70;65.20;;;;;;5028956;28;20577;-76
2022/09/02 11:54:08;;;;;;;3.27;1.43;;;27.90;63.60;;;;;;5028773;28;20920;-79
2022/09/02 11:56:40;;;;;;;10.73;1.40;;;28.10;64.50;;;;;;5028738;28;20473;-76
2022/09/02 11:59:07;;;;;;;1.47;1.23;;;28.00;62.80;;;;;;5028831;28;21279;-77
2022/09/02 12:01:37;;;;;;;2.67;1.43;;;27.10;61.80;;;;;;5028784;28;20459;-76
2022/09/02 12:04:05;;;;;;;1.37;1.27;;;26.80;62.20;;;;;;5027224;28;20442;-78
2022/09/02 12:06:31;;;;;;;3.00;1.30;;;27.00;64.30;;;;;;5028944;28;20519;-76
2022/09/02 12:09:02;;;;;;;2.03;1.20;;;27.50;62.90;;;;;;5028813;28;20423;-77
2022/09/02 12:11:40;;;;;;;1.63;1.53;;;27.60;61.20;;;;;;5027582;28;21011;-76
2022/09/02 12:14:12;;;;;;;6.97;1.50;;;28.00;60.60;;;;;;5031674;28;20517;-76
2022/09/02 12:16:42;;;;;;;1.60;1.20;;;27.90;60.80;;;;;;5032799;28;20407;-75
2022/09/02 12:19:09;;;;;;;2.10;1.00;;;28.00;60.30;;;;;;5032734;28;20539;-76
2022/09/02 12:21:37;;;;;;;1.30;1.17;;;28.00;58.60;;;;;;5032320;28;20435;-77
2022/09/02 12:24:08;;;;;;;2.43;1.40;;;28.30;59.90;;;;;;5032346;28;20419;-76
2022/09/02 12:26:40;;;;;;;2.00;1.80;;;28.40;60.90;;;;;;5032421;28;20396;-76
2022/09/02 12:29:32;;;;;;;1.97;1.40;;;28.30;58.50;;;;;;5030620;28;20423;-76
2022/09/02 12:31:58;;;;;;;3.23;1.50;;;28.40;59.60;;;;;;5031955;28;20422;-76
2022/09/02 12:34:23;;;;;;;2.03;1.13;;;28.50;59.10;;;;;;5030258;28;20795;-76
2022/09/02 12:36:53;;;;;;;1.20;1.10;;;28.50;59.10;;;;;;5031642;28;20188;-76
2022/09/02 12:39:26;;;;;;;2.03;1.83;;;28.30;59.00;;;;;;5031847;28;20869;-76
2022/09/02 12:42:09;;;;;;;1.87;1.77;;;28.30;59.10;;;;;;5031898;28;20461;-77
2022/09/02 12:44:59;;;;;;;2.50;1.23;;;28.10;59.40;;;;;;5031861;28;20442;-76
2022/09/02 12:47:59;;;;;;;3.60;1.40;;;28.20;58.90;;;;;;5031707;28;20426;-77
2022/09/02 12:50:52;;;;;;;1.53;1.40;;;28.00;57.70;;;;;;5031925;28;20816;-77
2022/09/02 12:53:38;;;;;;;3.57;1.40;;;27.70;57.70;;;;;;5032179;28;20403;-76
2022/09/02 12:56:12;;;;;;;1.30;1.20;;;27.50;61.50;;;;;;5030504;28;20833;-76
2022/09/02 12:58:44;;;;;;;2.80;1.20;;;27.50;59.60;;;;;;5032118;28;20491;-76
2022/09/02 13:01:46;;;;;;;2.60;1.30;;;27.60;59.40;;;;;;5031248;28;20439;-76
2022/09/02 13:04:18;;;;;;;2.80;1.43;;;27.80;58.90;;;;;;5025486;28;20426;-76
2022/09/02 13:06:53;;;;;;;3.43;1.47;;;27.90;59.50;;;;;;5033035;28;20410;-79